createdAt,value
2023-04-02T00:01:04.321Z,1.10
2023-04-02T00:03:43.807Z,0.93
2023-04-02T00:06:34.874Z,2.40
2023-04-02T00:09:13.675Z,2.73
2023-04-02T00:11:44.721Z,5.10
2023-04-02T00:14:33.497Z,3.10
2023-04-02T00:17:02.494Z,1.75
2023-04-02T00:19:36.806Z,3.57
2023-04-02T00:22:07.810Z,2.77
2023-04-02T00:24:34.325Z,2.60
2023-04-02T00:27:01.070Z,1.30
2023-04-02T00:29:27.639Z,4.97
2023-04-02T00:31:54.749Z,4.00
2023-04-02T00:34:30.634Z,4.00
2023-04-02T00:36:57.384Z,3.17
2023-04-02T00:39:27.232Z,8.40
2023-04-02T00:42:04.787Z,5.40
2023-04-02T00:44:37.867Z,2.55
2023-04-02T00:47:24.448Z,6.43
2023-04-02T00:49:58.683Z,11.10
2023-04-02T00:52:29.316Z,3.55
2023-04-02T00:55:10.500Z,8.88
2023-04-02T00:57:37.514Z,8.67
2023-04-02T01:00:22.515Z,16.10
2023-04-02T01:03:17.163Z,3.23
2023-04-02T01:05:50.618Z,3.73
2023-04-02T01:08:35.048Z,8.50
2023-04-02T01:11:25.775Z,6.47
2023-04-02T01:13:52.173Z,8.40
2023-04-02T01:16:22.784Z,4.17
2023-04-02T01:19:02.385Z,10.73
2023-04-02T01:21:55.529Z,8.63
2023-04-02T01:24:26.554Z,4.97
2023-04-02T01:26:52.984Z,7.27
2023-04-02T01:29:27.555Z,4.77
2023-04-02T01:31:57.639Z,4.13
2023-04-02T01:34:27.252Z,6.93
2023-04-02T01:36:59.788Z,4.63
2023-04-02T01:39:57.188Z,3.83
2023-04-02T01:42:29.705Z,5.70
2023-04-02T01:45:15.199Z,4.97
2023-04-02T01:47:43.692Z,2.42
2023-04-02T01:50:33.112Z,7.68
2023-04-02T01:53:02.282Z,4.90
2023-04-02T01:55:32.430Z,5.60
2023-04-02T01:58:01.297Z,5.30
2023-04-02T02:00:30.345Z,16.00
2023-04-02T02:02:57.132Z,6.22
2023-04-02T02:05:24.460Z,7.40
2023-04-02T02:07:53.511Z,3.00
2023-04-02T02:10:33.040Z,8.07
2023-04-02T02:13:00.534Z,4.07
2023-04-02T02:15:27.888Z,3.95
2023-04-02T02:18:00.956Z,7.75
2023-04-02T02:20:29.080Z,5.40
2023-04-02T02:22:57.262Z,8.20
2023-04-02T02:25:34.174Z,1.77
2023-04-02T02:28:14.075Z,8.00
2023-04-02T02:30:50.879Z,11.00
2023-04-02T02:33:31.292Z,6.88
2023-04-02T02:36:26.132Z,4.70
2023-04-02T02:39:03.780Z,12.20
2023-04-02T02:41:45.183Z,7.73
2023-04-02T02:44:22.033Z,6.20
2023-04-02T02:46:55.123Z,12.67
2023-04-02T02:49:27.542Z,12.87
2023-04-02T02:52:26.933Z,10.80
2023-04-02T02:54:59.552Z,9.63
2023-04-02T02:57:33.453Z,8.27
2023-04-02T03:00:01.972Z,11.30
2023-04-02T03:02:29.204Z,4.37
2023-04-02T03:04:58.277Z,13.57
2023-04-02T03:07:27.369Z,9.37
2023-04-02T03:10:05.987Z,6.73
2023-04-02T03:12:38.412Z,7.50
2023-04-02T03:15:20.122Z,10.90
2023-04-02T03:17:57.353Z,7.83
2023-04-02T03:20:23.924Z,4.80
2023-04-02T03:23:14.114Z,7.07
2023-04-02T03:25:55.998Z,6.83
2023-04-02T03:28:28.830Z,1.40
2023-04-02T03:31:02.975Z,6.23
2023-04-02T03:33:40.121Z,4.33
2023-04-02T03:36:38.465Z,5.37
2023-04-02T03:39:19.109Z,5.63
2023-04-02T03:41:55.480Z,6.60
2023-04-02T03:44:34.124Z,6.47
2023-04-02T03:47:27.251Z,7.60
2023-04-02T03:50:12.025Z,8.20
2023-04-02T03:52:39.328Z,6.45
2023-04-02T03:55:17.505Z,11.33
2023-04-02T03:58:14.824Z,7.30
2023-04-02T04:01:17.450Z,12.43
2023-04-02T04:03:51.561Z,4.47
2023-04-02T04:06:21.417Z,6.40
2023-04-02T04:08:58.764Z,4.43
2023-04-02T04:11:35.027Z,7.40
2023-04-02T04:14:30.982Z,3.25
2023-04-02T04:17:09.569Z,8.10
2023-04-02T04:19:55.450Z,8.53
2023-04-02T04:22:31.819Z,5.67
2023-04-02T04:25:01.957Z,2.53
2023-04-02T04:27:37.274Z,4.60
2023-04-02T04:30:19.727Z,5.27
2023-04-02T04:33:00.537Z,3.43
2023-04-02T04:35:53.378Z,3.33
2023-04-02T04:38:44.172Z,3.53
2023-04-02T04:41:16.389Z,3.33
2023-04-02T04:43:48.453Z,3.13
2023-04-02T04:46:33.192Z,4.27
2023-04-02T04:49:40.966Z,4.97
2023-04-02T04:52:39.951Z,4.90
2023-04-02T04:55:27.619Z,2.03
2023-04-02T04:58:04.031Z,1.80
2023-04-02T05:00:44.066Z,2.70
2023-04-02T05:03:54.698Z,3.92
2023-04-02T05:06:32.816Z,3.47
2023-04-02T05:09:21.256Z,8.80
2023-04-02T05:11:59.184Z,2.85
2023-04-02T05:14:35.564Z,2.28
2023-04-02T05:17:13.509Z,3.40
2023-04-02T05:19:53.699Z,3.58
2023-04-02T05:22:33.405Z,2.08
2023-04-02T05:25:19.919Z,1.67
2023-04-02T05:28:01.773Z,1.17
2023-04-02T05:30:28.146Z,3.00
2023-04-02T05:33:02.748Z,2.15
2023-04-02T05:35:36.624Z,1.47
2023-04-02T05:38:06.589Z,2.10
2023-04-02T05:40:39.830Z,1.73
2023-04-02T05:43:10.785Z,4.07
2023-04-02T05:45:41.262Z,3.00
2023-04-02T05:48:18.545Z,2.23
2023-04-02T05:50:51.141Z,1.93
2023-04-02T05:53:41.453Z,3.53
2023-04-02T05:56:17.786Z,2.80
2023-04-02T05:59:16.742Z,2.73
2023-04-02T06:01:58.882Z,3.45
2023-04-02T06:04:37.686Z,3.40
2023-04-02T06:07:22.830Z,6.55
2023-04-02T06:09:54.258Z,3.23
2023-04-02T06:12:35.043Z,2.07
2023-04-02T06:15:06.800Z,4.82
2023-04-02T06:17:52.882Z,6.27
2023-04-02T06:20:20.954Z,5.40
2023-04-02T06:22:52.326Z,4.35
2023-04-02T06:25:29.171Z,2.67
2023-04-02T06:28:01.733Z,5.70
2023-04-02T06:30:33.628Z,8.55
2023-04-02T06:33:03.159Z,8.00
2023-04-02T06:35:32.874Z,3.53
2023-04-02T06:38:04.039Z,7.22
2023-04-02T06:40:45.449Z,4.93
2023-04-02T06:43:26.282Z,6.00
2023-04-02T06:45:56.865Z,4.43
2023-04-02T06:48:36.410Z,16.33
2023-04-02T06:51:09.635Z,5.72
2023-04-02T06:53:43.234Z,6.82
2023-04-02T06:56:22.244Z,4.97
2023-04-02T06:58:48.872Z,4.28
2023-04-02T07:01:19.674Z,7.38
2023-04-02T07:03:46.332Z,5.43
2023-04-02T07:06:19.138Z,8.95
2023-04-02T07:08:46.143Z,11.23
2023-04-02T07:11:20.209Z,8.85
2023-04-02T07:13:48.691Z,5.05
2023-04-02T07:16:21.111Z,13.63
2023-04-02T07:18:48.708Z,8.75
2023-04-02T07:21:15.550Z,9.80
2023-04-02T07:23:42.015Z,7.97
2023-04-02T07:26:15.046Z,8.50
2023-04-02T07:28:41.989Z,10.75
2023-04-02T07:31:27.139Z,10.57
2023-04-02T07:33:58.211Z,9.10
2023-04-02T07:36:25.404Z,6.20
2023-04-02T07:38:52.474Z,7.50
2023-04-02T07:41:19.815Z,11.68
2023-04-02T07:43:47.005Z,6.47
2023-04-02T07:46:16.628Z,6.25
2023-04-02T07:48:44.166Z,5.40
2023-04-02T07:51:25.788Z,4.28
2023-04-02T07:53:56.065Z,7.45
2023-04-02T07:56:24.972Z,6.75
2023-04-02T07:58:51.614Z,5.90
2023-04-02T08:01:19.976Z,6.82
2023-04-02T08:03:47.583Z,6.18
2023-04-02T08:06:14.198Z,7.80
2023-04-02T08:08:41.519Z,12.70
2023-04-02T08:11:08.923Z,8.85
2023-04-02T08:13:35.800Z,6.28
2023-04-02T08:16:06.842Z,6.65
2023-04-02T08:18:33.677Z,4.40
2023-04-02T08:21:04.465Z,5.22
2023-04-02T08:23:33.811Z,3.67
2023-04-02T08:26:03.353Z,7.18
2023-04-02T08:28:32.570Z,6.88
2023-04-02T08:30:59.138Z,4.63
2023-04-02T08:33:26.099Z,6.97
2023-04-02T08:35:52.874Z,3.42
2023-04-02T08:38:22.721Z,3.63
2023-04-02T08:40:51.990Z,4.68
2023-04-02T08:43:51.452Z,6.78
2023-04-02T08:46:43.685Z,12.15
2023-04-02T08:49:19.661Z,14.40
2023-04-02T08:51:47.394Z,8.88
2023-04-02T08:54:38.018Z,9.00
2023-04-02T08:57:11.620Z,5.97
2023-04-02T08:59:42.139Z,6.05
2023-04-02T09:02:11.654Z,6.70
2023-04-02T09:04:38.696Z,4.60
2023-04-02T09:07:05.306Z,5.90
2023-04-02T09:09:38.312Z,8.40
2023-04-02T09:12:07.289Z,8.57
2023-04-02T09:14:43.433Z,6.57
2023-04-02T09:17:21.961Z,7.47
2023-04-02T09:20:02.872Z,8.70
2023-04-02T09:22:31.930Z,15.90
2023-04-02T09:25:05.260Z,17.05
2023-04-02T09:27:36.938Z,16.77
2023-04-02T09:30:11.542Z,24.65
2023-04-02T09:32:51.443Z,21.85
2023-04-02T09:35:26.571Z,17.15
2023-04-02T09:38:19.713Z,7.13
2023-04-02T09:40:59.004Z,8.32
2023-04-02T09:43:37.467Z,12.48
2023-04-02T09:46:13.574Z,9.63
2023-04-02T09:49:06.367Z,10.07
2023-04-02T09:51:36.791Z,6.57
2023-04-02T09:54:08.523Z,7.97
2023-04-02T09:56:36.720Z,8.15
2023-04-02T09:59:13.189Z,7.05
2023-04-02T10:01:44.314Z,8.32
2023-04-02T10:04:47.705Z,6.43
2023-04-02T10:07:45.202Z,7.03
2023-04-02T10:10:14.444Z,9.35
2023-04-02T10:12:45.666Z,9.82
2023-04-02T10:15:21.232Z,6.15
2023-04-02T10:18:05.196Z,6.15
2023-04-02T10:20:48.594Z,7.72
2023-04-02T10:23:19.372Z,7.20
2023-04-02T10:26:24.096Z,8.15
2023-04-02T10:28:59.549Z,6.38
2023-04-02T10:31:55.793Z,2.60
2023-04-02T10:34:39.433Z,5.00
2023-04-02T10:37:49.846Z,5.93
2023-04-02T10:40:48.533Z,4.90
2023-04-02T10:43:48.077Z,3.67
2023-04-02T10:46:25.403Z,4.28
2023-04-02T10:49:06.491Z,4.40
2023-04-02T10:51:48.907Z,2.55
2023-04-02T10:54:33.859Z,4.57
2023-04-02T10:57:22.249Z,1.45
2023-04-02T11:00:10.673Z,1.70
2023-04-02T11:02:49.410Z,1.80
2023-04-02T11:05:23.547Z,2.25
2023-04-02T11:08:04.918Z,1.88
2023-04-02T11:10:35.280Z,2.10
2023-04-02T11:13:15.475Z,1.92
2023-04-02T11:15:42.457Z,2.08
2023-04-02T11:18:40.556Z,8.90
2023-04-02T11:21:25.748Z,4.53
2023-04-02T11:24:05.775Z,3.47
2023-04-02T11:26:38.282Z,3.05
2023-04-02T11:29:12.995Z,2.17
2023-04-02T11:31:40.019Z,2.55
2023-04-02T11:34:06.594Z,1.73
2023-04-02T11:36:52.864Z,1.80
2023-04-02T11:39:45.437Z,1.63
2023-04-02T11:42:18.005Z,1.73
2023-04-02T11:44:44.821Z,2.80
2023-04-02T11:47:26.255Z,3.22
2023-04-02T11:49:55.718Z,1.45
2023-04-02T11:52:24.136Z,3.20
2023-04-02T11:54:58.294Z,1.63
2023-04-02T11:58:05.514Z,3.45
2023-04-02T12:01:07.915Z,5.00
2023-04-02T12:04:03.585Z,1.58
2023-04-02T12:06:46.839Z,1.95
2023-04-02T12:09:25.978Z,1.73
2023-04-02T12:11:55.511Z,3.03
2023-04-02T12:14:51.257Z,4.50
2023-04-02T12:17:24.356Z,1.75
2023-04-02T12:19:55.073Z,1.30
2023-04-02T12:22:37.681Z,0.68
2023-04-02T12:25:18.181Z,1.48
2023-04-02T12:27:46.558Z,1.63
2023-04-02T12:30:22.331Z,1.30
2023-04-02T12:32:49.464Z,0.60
2023-04-02T12:35:35.050Z,0.65
2023-04-02T12:38:04.767Z,0.77
2023-04-02T12:40:33.383Z,3.95
2023-04-02T12:42:59.981Z,1.73
2023-04-02T12:45:30.684Z,1.38
2023-04-02T12:47:58.085Z,2.70
2023-04-02T12:50:24.829Z,0.75
2023-04-02T12:52:54.883Z,2.95
2023-04-02T12:55:23.982Z,0.88
2023-04-02T12:57:58.848Z,0.52
2023-04-02T13:00:25.697Z,1.58
2023-04-02T13:03:18.349Z,1.85
2023-04-02T13:05:52.290Z,3.20
2023-04-02T13:08:30.994Z,2.45
2023-04-02T13:11:00.616Z,1.10
2023-04-02T13:13:39.394Z,1.67
2023-04-02T13:16:14.865Z,0.50
2023-04-02T13:18:43.159Z,1.48
2023-04-02T13:21:29.628Z,1.65
2023-04-02T13:23:56.052Z,3.22
2023-04-02T13:26:25.743Z,1.27
2023-04-02T13:29:05.135Z,0.77
2023-04-02T13:31:32.749Z,2.60
2023-04-02T13:34:00.455Z,1.50
2023-04-02T13:36:29.206Z,2.55
2023-04-02T13:38:56.077Z,1.80
2023-04-02T13:41:26.385Z,0.93
2023-04-02T13:43:54.258Z,0.85
2023-04-02T13:46:26.436Z,2.07
2023-04-02T13:48:54.768Z,2.88
2023-04-02T13:51:24.241Z,0.80
2023-04-02T13:53:57.028Z,1.83
2023-04-02T13:56:24.627Z,2.53
2023-04-02T13:58:52.198Z,1.02
2023-04-02T14:01:21.404Z,1.00
2023-04-02T14:03:47.952Z,0.70
2023-04-02T14:06:42.462Z,1.25
2023-04-02T14:09:21.979Z,1.77
2023-04-02T14:12:14.808Z,2.47
2023-04-02T14:14:56.268Z,1.42
2023-04-02T14:17:34.366Z,1.52
2023-04-02T14:20:16.923Z,1.27
2023-04-02T14:23:03.710Z,3.85
2023-04-02T14:26:09.799Z,4.13
2023-04-02T14:28:57.282Z,2.35
2023-04-02T14:31:32.532Z,1.08
2023-04-02T14:34:13.898Z,0.98
2023-04-02T14:37:04.416Z,1.40
2023-04-02T14:39:55.360Z,1.77
2023-04-02T14:42:38.416Z,1.58
2023-04-02T14:45:27.194Z,2.05
2023-04-02T14:48:00.747Z,1.27
2023-04-02T14:50:33.360Z,2.38
2023-04-02T14:53:08.973Z,1.23
2023-04-02T14:55:43.919Z,1.70
2023-04-02T14:58:18.878Z,1.70
2023-04-02T15:00:56.148Z,1.55
2023-04-02T15:03:25.859Z,1.67
2023-04-02T15:06:05.396Z,1.63
2023-04-02T15:08:40.584Z,1.58
2023-04-02T15:11:15.342Z,1.60
2023-04-02T15:14:03.964Z,2.28
2023-04-02T15:16:32.395Z,2.43
2023-04-02T15:19:01.234Z,2.30
2023-04-02T15:21:55.805Z,1.52
2023-04-02T15:24:45.054Z,1.67
2023-04-02T15:27:29.713Z,1.15
2023-04-02T15:30:02.295Z,0.95
2023-04-02T15:32:38.572Z,1.13
2023-04-02T15:35:31.472Z,1.40
2023-04-02T15:38:15.826Z,4.13
2023-04-02T15:41:00.454Z,2.37
2023-04-02T15:44:00.769Z,1.87
2023-04-02T15:46:38.836Z,3.23
2023-04-02T15:49:28.861Z,1.42
2023-04-02T15:52:11.062Z,6.30
2023-04-02T15:55:00.185Z,2.03
2023-04-02T15:57:59.005Z,3.13
2023-04-02T16:00:47.824Z,2.67
2023-04-02T16:03:33.466Z,1.20
2023-04-02T16:06:16.701Z,2.85
2023-04-02T16:09:09.995Z,2.53
2023-04-02T16:11:40.734Z,1.73
2023-04-02T16:14:27.399Z,1.60
2023-04-02T16:17:02.095Z,2.47
2023-04-02T16:19:40.022Z,2.47
2023-04-02T16:22:16.985Z,2.55
2023-04-02T16:24:43.436Z,2.20
2023-04-02T16:27:40.891Z,1.80
2023-04-02T16:30:39.949Z,2.22
2023-04-02T16:33:15.447Z,2.57
2023-04-02T16:36:17.642Z,4.97
2023-04-02T16:38:55.888Z,3.17
2023-04-02T16:41:31.077Z,1.95
2023-04-02T16:44:17.140Z,1.85
2023-04-02T16:46:55.734Z,3.30
2023-04-02T16:49:32.908Z,4.03
2023-04-02T16:52:15.045Z,2.92
2023-04-02T16:55:03.737Z,3.00
2023-04-02T16:57:30.597Z,3.47
2023-04-02T17:00:22.003Z,2.40
2023-04-02T17:03:14.600Z,3.92
2023-04-02T17:06:02.780Z,2.85
2023-04-02T17:08:39.405Z,3.35
2023-04-02T17:11:09.197Z,2.65
2023-04-02T17:13:41.581Z,5.87
2023-04-02T17:16:30.424Z,4.32
2023-04-02T17:18:59.731Z,4.93
2023-04-02T17:21:29.100Z,2.75
2023-04-02T17:24:00.378Z,3.38
2023-04-02T17:26:29.892Z,3.43
2023-04-02T17:29:00.883Z,3.58
2023-04-02T17:31:34.300Z,4.57
2023-04-02T17:34:11.970Z,4.60
2023-04-02T17:37:04.881Z,2.63
2023-04-02T17:40:18.959Z,3.20
2023-04-02T17:43:09.885Z,4.00
2023-04-02T17:46:12.145Z,3.85
2023-04-02T17:49:05.492Z,5.50
2023-04-02T17:52:05.403Z,5.75
2023-04-02T17:54:51.553Z,6.20
2023-04-02T17:57:48.124Z,4.00
2023-04-02T18:00:29.483Z,5.18
2023-04-02T18:03:06.097Z,6.05
2023-04-02T18:05:42.301Z,4.88
2023-04-02T18:08:15.820Z,3.70
2023-04-02T18:10:51.657Z,9.45
2023-04-02T18:13:23.766Z,6.75
2023-04-02T18:16:12.089Z,4.90
2023-04-02T18:18:55.993Z,3.55
2023-04-02T18:21:31.375Z,5.35
2023-04-02T18:24:21.212Z,4.05
2023-04-02T18:27:24.787Z,5.40
2023-04-02T18:29:51.316Z,4.20
2023-04-02T18:32:29.942Z,5.13
2023-04-02T18:35:26.049Z,4.07
2023-04-02T18:38:24.956Z,4.32
2023-04-02T18:40:51.588Z,6.53
2023-04-02T18:43:30.818Z,7.40
2023-04-02T18:46:22.466Z,6.47
2023-04-02T18:49:28.277Z,9.68
2023-04-02T18:52:00.462Z,7.18
2023-04-02T18:54:48.359Z,10.07
2023-04-02T18:57:28.864Z,11.38
2023-04-02T19:00:04.810Z,10.17
2023-04-02T19:02:40.227Z,14.60
2023-04-02T19:05:23.563Z,11.45
2023-04-02T19:07:55.313Z,12.10
2023-04-02T19:10:26.120Z,13.43
2023-04-02T19:12:52.710Z,9.45
2023-04-02T19:15:21.336Z,10.68
2023-04-02T19:18:10.804Z,13.27
2023-04-02T19:21:02.183Z,18.30
2023-04-02T19:23:55.140Z,12.98
2023-04-02T19:26:29.497Z,14.63
2023-04-02T19:29:26.424Z,11.77
2023-04-02T19:32:20.902Z,13.67
2023-04-02T19:34:56.516Z,13.13
2023-04-02T19:37:42.928Z,11.07
2023-04-02T19:40:43.990Z,13.57
2023-04-02T19:43:11.430Z,11.55
2023-04-02T19:45:40.511Z,10.97
2023-04-02T19:48:14.412Z,9.57
2023-04-02T19:50:41.279Z,11.57
2023-04-02T19:53:10.908Z,14.68
2023-04-02T19:55:42.954Z,11.50
2023-04-02T19:58:28.790Z,12.40
2023-04-02T20:00:56.134Z,8.40
2023-04-02T20:03:23.314Z,10.93
2023-04-02T20:05:50.367Z,12.18
2023-04-02T20:08:17.261Z,10.95
2023-04-02T20:10:44.431Z,9.20
2023-04-02T20:13:11.084Z,14.60
2023-04-02T20:15:41.783Z,15.65
2023-04-02T20:18:10.466Z,11.30
2023-04-02T20:20:40.526Z,11.60
2023-04-02T20:23:09.142Z,12.45
2023-04-02T20:25:35.631Z,13.18
2023-04-02T20:28:03.911Z,10.35
2023-04-02T20:30:32.404Z,9.73
2023-04-02T20:32:59.400Z,7.47
2023-04-02T20:35:26.645Z,9.23
2023-04-02T20:37:53.392Z,8.13
2023-04-02T20:40:19.900Z,9.38
2023-04-02T20:42:46.474Z,7.70
2023-04-02T20:45:12.945Z,8.82
2023-04-02T20:47:43.072Z,7.53
2023-04-02T20:50:10.699Z,6.93
2023-04-02T20:52:37.168Z,9.98
2023-04-02T20:55:05.195Z,7.65
2023-04-02T20:57:31.832Z,13.70
2023-04-02T20:59:59.052Z,10.10
2023-04-02T21:02:25.643Z,8.57
2023-04-02T21:04:52.166Z,9.30
2023-04-02T21:07:18.748Z,10.80
2023-04-02T21:09:45.214Z,10.40
2023-04-02T21:12:12.251Z,12.48
2023-04-02T21:14:40.599Z,5.87
2023-04-02T21:17:07.784Z,8.87
2023-04-02T21:19:34.825Z,7.67
2023-04-02T21:22:01.376Z,16.35
2023-04-02T21:24:28.103Z,7.18
2023-04-02T21:26:54.797Z,9.20
2023-04-02T21:29:21.352Z,10.13
2023-04-02T21:31:48.172Z,16.05
2023-04-02T21:34:16.905Z,12.32
2023-04-02T21:36:45.985Z,9.85
2023-04-02T21:39:22.442Z,11.35
2023-04-02T21:41:50.848Z,11.33
2023-04-02T21:44:24.194Z,9.73
2023-04-02T21:46:53.022Z,11.30
2023-04-02T21:49:22.801Z,12.68
2023-04-02T21:51:51.789Z,13.02
2023-04-02T21:54:19.261Z,12.98
2023-04-02T21:56:47.333Z,11.23
2023-04-02T21:59:15.469Z,12.90
2023-04-02T22:01:49.907Z,12.32
2023-04-02T22:04:24.662Z,11.43
2023-04-02T22:06:52.498Z,11.83
2023-04-02T22:09:22.375Z,9.80
2023-04-02T22:12:01.461Z,12.57
2023-04-02T22:14:28.216Z,11.10
2023-04-02T22:16:55.024Z,12.77
2023-04-02T22:19:21.622Z,12.20
2023-04-02T22:21:48.132Z,16.23
2023-04-02T22:24:18.713Z,10.27
2023-04-02T22:26:46.093Z,14.83
2023-04-02T22:29:14.742Z,16.05
2023-04-02T22:31:41.560Z,15.73
2023-04-02T22:34:08.067Z,15.87
2023-04-02T22:36:35.160Z,14.27
2023-04-02T22:39:05.549Z,13.20
2023-04-02T22:41:32.628Z,11.27
2023-04-02T22:44:00.824Z,11.67
2023-04-02T22:46:28.606Z,13.43
2023-04-02T22:48:56.224Z,15.97
2023-04-02T22:51:24.598Z,10.88
2023-04-02T22:53:53.513Z,14.88
2023-04-02T22:56:22.964Z,14.32
2023-04-02T22:58:50.245Z,20.67
2023-04-02T23:01:32.736Z,17.88
2023-04-02T23:03:59.172Z,17.00
2023-04-02T23:06:25.953Z,14.75
2023-04-02T23:08:52.860Z,15.40
2023-04-02T23:11:25.901Z,15.63
2023-04-02T23:13:54.040Z,16.25
2023-04-02T23:16:22.587Z,16.23
2023-04-02T23:18:49.789Z,18.10
2023-04-02T23:21:20.533Z,14.57
2023-04-02T23:23:50.491Z,19.03
2023-04-02T23:26:31.391Z,13.23
2023-04-02T23:28:59.559Z,16.13
2023-04-02T23:31:26.388Z,15.63
2023-04-02T23:33:53.002Z,20.58
2023-04-02T23:36:28.600Z,15.07
2023-04-02T23:38:57.974Z,19.00
2023-04-02T23:41:26.894Z,16.90
2023-04-02T23:43:55.281Z,16.87
2023-04-02T23:46:22.934Z,18.10
2023-04-02T23:48:50.601Z,18.53
2023-04-02T23:51:17.686Z,14.50
2023-04-02T23:53:44.271Z,20.97
2023-04-02T23:56:10.932Z,17.00
2023-04-02T23:58:37.671Z,14.17
